Keene, NH (03431)

10:23 PM EDT on July 23, 2016 (GMT -0400)
Keene,Surry,Gilsum line-FN32UX | | Change Station

Elev 820 ft 42.98 °N, 72.30 °W | Updated 6 minutes ago

Clear
Clear
62.4 °F
Feels Like 62.4 °F
N
2.2
Wind Variable Wind from NNE

Today
High -- | Low -- °F
--% Chance of Precip.
Yesterday
High -- | Low -- °F
Precip. -- in
Pressure 30.42 in
Visibility 10.0 miles
Clouds Clear
Dew Point 62 °F
Humidity 98%
Rainfall 0.36 in
Snow Depth Not available.
5:31 AM 8:19 PM
Waning Gibbous, 80% visible
METAR KEEN 240215Z 00000KT 10SM CLR 17/17 A2992 RMK AO2 SLP300 PWINO PNO FZRANO RVRNO
Pressure 30.42 in
Visibility 10.0 miles
Clouds Clear
Dew Point 62 °F
Humidity 98%
Rainfall 0.36 in
Snow Depth Not available.
5:31 AM 8:19 PM
Waning Gibbous, 80% visible
METAR KEEN 240215Z 00000KT 10SM CLR 17/17 A2992 RMK AO2 SLP300 PWINO PNO FZRANO RVRNO

10-Day Weather Forecast

Almanac

Astronomy

Jul. 23, 2016 Rise Set
Actual Time
Civil Twilight
Nautical Twilight
Astronomical Twilight
Moon
Length of Visible Light
Length of Day
Tomorrow will be .
, % of the Moon is Illuminated

Today's Extremes

State Highs State Lows

Community

WunderPhotos

Upload Photos

1,927,000 photos uploaded!

WunderBlog® & News

Nearby

Air Quality

  Air Quality AQ Index Pollutant
Not available.

Snow Depth

Station Depth Elevation

Earthquake Activity

City Distance Mag. Time & Date
Minimum magnitude displayed is 2.5.

Coastal Water Temperatures

Place Temperature

Stations

Nearby Weather Stations

Station Location Temp. Windchill Dew Point Humidity Wind Precip. Elev Updated Type
                   

Watches & Warnings

There are currently no watches in effect.